sensor_id;sensor_type;location;lat;lon;timestamp;temperature;humidity
7248;DHT22;3665;51.034;13.642;2024-02-15T00:03:42;8.40;1.00
7248;DHT22;3665;51.034;13.642;2024-02-15T00:08:32;8.50;1.00
7248;DHT22;3665;51.034;13.642;2024-02-15T00:13:40;8.50;1.00
7248;DHT22;3665;51.034;13.642;2024-02-15T00:18:56;8.40;1.00
7248;DHT22;3665;51.034;13.642;2024-02-15T00:29:06;8.50;1.00
7248;DHT22;3665;51.034;13.642;2024-02-15T00:34:25;8.60;99.90
7248;DHT22;3665;51.034;13.642;2024-02-15T00:39:17;8.70;14.30
7248;DHT22;3665;51.034;13.642;2024-02-15T00:44:18;8.70;1.00
7248;DHT22;3665;51.034;13.642;2024-02-15T00:49:38;8.80;1.00
7248;DHT22;3665;51.034;13.642;2024-02-15T00:55:02;8.70;1.00
7248;DHT22;3665;51.034;13.642;2024-02-15T01:00:05;8.60;1.00
7248;DHT22;3665;51.034;13.642;2024-02-15T01:05:03;8.70;36.20
7248;DHT22;3665;51.034;13.642;2024-02-15T01:09:57;8.70;99.90
7248;DHT22;3665;51.034;13.642;2024-02-15T01:15:32;8.80;1.00
7248;DHT22;3665;51.034;13.642;2024-02-15T01:20:36;8.90;1.00
7248;DHT22;3665;51.034;13.642;2024-02-15T01:31:11;9.10;1.00
7248;DHT22;3665;51.034;13.642;2024-02-15T01:36:00;9.00;1.00
7248;DHT22;3665;51.034;13.642;2024-02-15T01:41:03;9.10;1.00
7248;DHT22;3665;51.034;13.642;2024-02-15T01:45:53;9.10;1.00
7248;DHT22;3665;51.034;13.642;2024-02-15T01:50:45;9.10;1.00
7248;DHT22;3665;51.034;13.642;2024-02-15T01:55:45;9.10;1.00
7248;DHT22;3665;51.034;13.642;2024-02-15T02:00:50;9.10;1.00
7248;DHT22;3665;51.034;13.642;2024-02-15T02:06:00;9.30;1.00
7248;DHT22;3665;51.034;13.642;2024-02-15T02:16:32;9.20;99.90
7248;DHT22;3665;51.034;13.642;2024-02-15T02:21:56;9.30;99.90
7248;DHT22;3665;51.034;13.642;2024-02-15T02:27:29;9.30;1.00
7248;DHT22;3665;51.034;13.642;2024-02-15T02:32:16;9.40;1.00
7248;DHT22;3665;51.034;13.642;2024-02-15T02:37:06;9.40;1.00
7248;DHT22;3665;51.034;13.642;2024-02-15T02:42:07;9.30;1.00
7248;DHT22;3665;51.034;13.642;2024-02-15T02:47:00;9.50;1.00
7248;DHT22;3665;51.034;13.642;2024-02-15T02:52:18;9.40;1.00
7248;DHT22;3665;51.034;13.642;2024-02-15T02:57:10;9.40;1.00
7248;DHT22;3665;51.034;13.642;2024-02-15T03:02:58;9.50;1.00
7248;DHT22;3665;51.034;13.642;2024-02-15T03:08:07;9.40;1.00
7248;DHT22;3665;51.034;13.642;2024-02-15T03:13:04;9.40;1.00
7248;DHT22;3665;51.034;13.642;2024-02-15T03:18:26;9.40;1.00
7248;DHT22;3665;51.034;13.642;2024-02-15T03:23:13;9.40;1.00
7248;DHT22;3665;51.034;13.642;2024-02-15T03:28:19;9.40;1.00
7248;DHT22;3665;51.034;13.642;2024-02-15T03:33:55;9.40;1.00
7248;DHT22;3665;51.034;13.642;2024-02-15T03:39:32;9.50;1.00
7248;DHT22;3665;51.034;13.642;2024-02-15T03:44:50;9.50;1.00
7248;DHT22;3665;51.034;13.642;2024-02-15T03:50:15;9.50;1.00
7248;DHT22;3665;51.034;13.642;2024-02-15T03:55:13;9.60;1.00
7248;DHT22;3665;51.034;13.642;2024-02-15T04:00:24;9.50;1.00
7248;DHT22;3665;51.034;13.642;2024-02-15T04:05:55;9.60;1.00
7248;DHT22;3665;51.034;13.642;2024-02-15T04:10:59;9.70;1.00
7248;DHT22;3665;51.034;13.642;2024-02-15T04:15:58;9.70;1.00
7248;DHT22;3665;51.034;13.642;2024-02-15T04:21:05;9.80;1.00
7248;DHT22;3665;51.034;13.642;2024-02-15T04:26:14;9.70;1.00
7248;DHT22;3665;51.034;13.642;2024-02-15T04:32:04;9.80;1.00
7248;DHT22;3665;51.034;13.642;2024-02-15T04:37:40;9.70;1.00
7248;DHT22;3665;51.034;13.642;2024-02-15T04:42:42;9.80;1.00
7248;DHT22;3665;51.034;13.642;2024-02-15T04:53:57;9.80;1.00
7248;DHT22;3665;51.034;13.642;2024-02-15T05:05:11;10.00;99.90
7248;DHT22;3665;51.034;13.642;2024-02-15T05:10:27;10.00;99.90
7248;DHT22;3665;51.034;13.642;2024-02-15T05:15:49;10.00;99.90
7248;DHT22;3665;51.034;13.642;2024-02-15T05:26:54;9.90;1.00
7248;DHT22;3665;51.034;13.642;2024-02-15T05:32:20;10.00;1.00
7248;DHT22;3665;51.034;13.642;2024-02-15T05:42:39;10.10;1.00
7248;DHT22;3665;51.034;13.642;2024-02-15T05:47:32;10.10;1.00
7248;DHT22;3665;51.034;13.642;2024-02-15T05:52:55;10.00;1.00
7248;DHT22;3665;51.034;13.642;2024-02-15T05:59:01;10.00;1.00
7248;DHT22;3665;51.034;13.642;2024-02-15T06:04:03;10.10;1.00
7248;DHT22;3665;51.034;13.642;2024-02-15T06:09:05;10.10;1.00
7248;DHT22;3665;51.034;13.642;2024-02-15T06:14:11;10.10;1.00
7248;DHT22;3665;51.034;13.642;2024-02-15T06:19:50;10.10;1.00
7248;DHT22;3665;51.034;13.642;2024-02-15T06:25:58;10.00;1.00
7248;DHT22;3665;51.034;13.642;2024-02-15T06:31:33;10.10;1.00
7248;DHT22;3665;51.034;13.642;2024-02-15T06:37:22;10.00;1.00
7248;DHT22;3665;51.034;13.642;2024-02-15T06:43:13;10.00;1.00
7248;DHT22;3665;51.034;13.642;2024-02-15T06:48:49;10.20;1.00
7248;DHT22;3665;51.034;13.642;2024-02-15T06:53:59;10.20;1.00
7248;DHT22;3665;51.034;13.642;2024-02-15T06:59:48;10.20;1.00
7248;DHT22;3665;51.034;13.642;2024-02-15T07:05:05;10.20;1.00
7248;DHT22;3665;51.034;13.642;2024-02-15T07:10:11;10.20;1.00
7248;DHT22;3665;51.034;13.642;2024-02-15T07:15:50;10.20;1.00
7248;DHT22;3665;51.034;13.642;2024-02-15T07:21:19;10.30;1.00
7248;DHT22;3665;51.034;13.642;2024-02-15T07:32:20;10.60;99.90
7248;DHT22;3665;51.034;13.642;2024-02-15T07:37:56;10.70;1.00
7248;DHT22;3665;51.034;13.642;2024-02-15T07:43:49;10.70;99.90
7248;DHT22;3665;51.034;13.642;2024-02-15T07:49:03;10.90;99.90
7248;DHT22;3665;51.034;13.642;2024-02-15T07:54:15;11.00;99.90
7248;DHT22;3665;51.034;13.642;2024-02-15T07:59:13;11.10;99.90
7248;DHT22;3665;51.034;13.642;2024-02-15T08:04:08;11.30;99.90
7248;DHT22;3665;51.034;13.642;2024-02-15T08:09:37;11.30;99.90
7248;DHT22;3665;51.034;13.642;2024-02-15T08:15:12;11.50;99.90
7248;DHT22;3665;51.034;13.642;2024-02-15T08:20:22;11.60;99.90
7248;DHT22;3665;51.034;13.642;2024-02-15T08:27:00;11.70;99.90
7248;DHT22;3665;51.034;13.642;2024-02-15T08:31:46;11.90;99.90
7248;DHT22;3665;51.034;13.642;2024-02-15T08:37:04;12.00;99.90
7248;DHT22;3665;51.034;13.642;2024-02-15T08:42:24;12.20;99.90
7248;DHT22;3665;51.034;13.642;2024-02-15T08:47:28;12.80;96.00
7248;DHT22;3665;51.034;13.642;2024-02-15T08:53:07;13.10;47.30
7248;DHT22;3665;51.034;13.642;2024-02-15T09:04:26;13.30;36.20
7248;DHT22;3665;51.034;13.642;2024-02-15T09:09:53;13.30;20.50
7248;DHT22;3665;51.034;13.642;2024-02-15T09:21:09;12.80;29.10
7248;DHT22;3665;51.034;13.642;2024-02-15T09:26:32;13.10;24.60
7248;DHT22;3665;51.034;13.642;2024-02-15T09:32:08;13.00;23.50
7248;DHT22;3665;51.034;13.642;2024-02-15T09:37:54;13.40;17.20
7248;DHT22;3665;51.034;13.642;2024-02-15T09:43:17;13.60;22.20
7248;DHT22;3665;51.034;13.642;2024-02-15T09:48:17;13.80;6.30
7248;DHT22;3665;51.034;13.642;2024-02-15T09:53:42;14.00;5.70
7248;DHT22;3665;51.034;13.642;2024-02-15T10:00:07;14.20;1.00
7248;DHT22;3665;51.034;13.642;2024-02-15T10:24:08;14.20;1.00
7248;DHT22;3665;51.034;13.642;2024-02-15T10:29:43;14.40;1.00
7248;DHT22;3665;51.034;13.642;2024-02-15T10:35:28;14.40;1.00
7248;DHT22;3665;51.034;13.642;2024-02-15T10:41:26;14.10;1.00
7248;DHT22;3665;51.034;13.642;2024-02-15T10:47:11;14.30;1.00
7248;DHT22;3665;51.034;13.642;2024-02-15T11:04:21;14.60;1.00
7248;DHT22;3665;51.034;13.642;2024-02-15T11:09:34;14.50;1.00
7248;DHT22;3665;51.034;13.642;2024-02-15T11:21:07;14.30;1.00
7248;DHT22;3665;51.034;13.642;2024-02-15T11:32:05;14.40;1.00
7248;DHT22;3665;51.034;13.642;2024-02-15T11:37:06;14.60;1.00
7248;DHT22;3665;51.034;13.642;2024-02-15T11:42:58;14.70;1.00
7248;DHT22;3665;51.034;13.642;2024-02-15T11:48:18;15.30;1.00
7248;DHT22;3665;51.034;13.642;2024-02-15T11:53:08;15.60;1.00
7248;DHT22;3665;51.034;13.642;2024-02-15T11:58:40;15.50;1.00
7248;DHT22;3665;51.034;13.642;2024-02-15T12:04:38;15.60;1.00
7248;DHT22;3665;51.034;13.642;2024-02-15T12:15:10;15.30;1.00
7248;DHT22;3665;51.034;13.642;2024-02-15T12:21:13;15.00;1.00
7248;DHT22;3665;51.034;13.642;2024-02-15T12:26:47;15.10;1.00
7248;DHT22;3665;51.034;13.642;2024-02-15T12:32:44;15.10;1.00
7248;DHT22;3665;51.034;13.642;2024-02-15T12:38:05;15.00;1.00
7248;DHT22;3665;51.034;13.642;2024-02-15T12:43:53;15.20;1.00
7248;DHT22;3665;51.034;13.642;2024-02-15T12:56:24;15.00;1.00
7248;DHT22;3665;51.034;13.642;2024-02-15T13:01:11;15.00;1.00
7248;DHT22;3665;51.034;13.642;2024-02-15T13:06:19;15.00;1.00
7248;DHT22;3665;51.034;13.642;2024-02-15T13:11:56;15.00;1.00
7248;DHT22;3665;51.034;13.642;2024-02-15T13:18:04;15.00;1.00
7248;DHT22;3665;51.034;13.642;2024-02-15T13:54:37;16.20;1.00
7248;DHT22;3665;51.034;13.642;2024-02-15T14:13:22;16.10;1.00
7248;DHT22;3665;51.034;13.642;2024-02-15T14:20:10;16.00;1.00
7248;DHT22;3665;51.034;13.642;2024-02-15T14:39:25;15.20;1.00
7248;DHT22;3665;51.034;13.642;2024-02-15T14:45:32;15.10;1.00
7248;DHT22;3665;51.034;13.642;2024-02-15T15:26:38;14.10;1.00
7248;DHT22;3665;51.034;13.642;2024-02-15T15:43:43;13.80;1.00
7248;DHT22;3665;51.034;13.642;2024-02-15T16:29:20;12.00;11.70
7248;DHT22;3665;51.034;13.642;2024-02-15T16:34:16;11.80;25.50
7248;DHT22;3665;51.034;13.642;2024-02-15T16:39:03;11.80;27.00
7248;DHT22;3665;51.034;13.642;2024-02-15T16:43:52;11.70;36.60
7248;DHT22;3665;51.034;13.642;2024-02-15T16:49:10;11.50;50.70
7248;DHT22;3665;51.034;13.642;2024-02-15T16:54:24;11.40;63.90
7248;DHT22;3665;51.034;13.642;2024-02-15T16:59:20;11.30;78.70
7248;DHT22;3665;51.034;13.642;2024-02-15T17:04:06;11.20;94.00
7248;DHT22;3665;51.034;13.642;2024-02-15T17:08:56;11.00;99.90
7248;DHT22;3665;51.034;13.642;2024-02-15T17:13:45;11.00;99.90
7248;DHT22;3665;51.034;13.642;2024-02-15T17:18:30;10.90;99.90
7248;DHT22;3665;51.034;13.642;2024-02-15T17:23:22;10.90;99.90
7248;DHT22;3665;51.034;13.642;2024-02-15T17:28:07;10.80;99.90
7248;DHT22;3665;51.034;13.642;2024-02-15T17:32:55;10.80;99.90
7248;DHT22;3665;51.034;13.642;2024-02-15T17:37:42;10.70;99.90
7248;DHT22;3665;51.034;13.642;2024-02-15T17:42:31;10.50;99.90
7248;DHT22;3665;51.034;13.642;2024-02-15T17:47:17;10.30;99.90
7248;DHT22;3665;51.034;13.642;2024-02-15T17:52:06;10.20;99.90
7248;DHT22;3665;51.034;13.642;2024-02-15T17:56:57;9.90;99.90
7248;DHT22;3665;51.034;13.642;2024-02-15T18:01:42;9.80;99.90
7248;DHT22;3665;51.034;13.642;2024-02-15T18:06:30;9.70;99.90
7248;DHT22;3665;51.034;13.642;2024-02-15T18:11:19;9.70;99.90
7248;DHT22;3665;51.034;13.642;2024-02-15T18:16:07;9.70;1.00
7248;DHT22;3665;51.034;13.642;2024-02-15T18:20:54;9.60;1.00
7248;DHT22;3665;51.034;13.642;2024-02-15T18:25:46;9.60;1.00
7248;DHT22;3665;51.034;13.642;2024-02-15T18:30:32;9.50;1.00
7248;DHT22;3665;51.034;13.642;2024-02-15T18:35:34;9.60;1.00
7248;DHT22;3665;51.034;13.642;2024-02-15T18:40:24;9.60;1.00
7248;DHT22;3665;51.034;13.642;2024-02-15T18:45:13;9.50;1.00
7248;DHT22;3665;51.034;13.642;2024-02-15T18:49:59;9.40;1.00
7248;DHT22;3665;51.034;13.642;2024-02-15T18:54:46;9.40;1.00
7248;DHT22;3665;51.034;13.642;2024-02-15T18:59:35;9.30;1.00
7248;DHT22;3665;51.034;13.642;2024-02-15T19:04:28;9.20;1.00
7248;DHT22;3665;51.034;13.642;2024-02-15T19:09:13;9.20;1.00
7248;DHT22;3665;51.034;13.642;2024-02-15T19:14:00;9.20;1.00
7248;DHT22;3665;51.034;13.642;2024-02-15T19:18:47;9.10;1.00
7248;DHT22;3665;51.034;13.642;2024-02-15T19:23:34;8.90;99.90
7248;DHT22;3665;51.034;13.642;2024-02-15T19:28:24;8.70;99.90
7248;DHT22;3665;51.034;13.642;2024-02-15T19:33:10;8.70;1.00
7248;DHT22;3665;51.034;13.642;2024-02-15T19:37:58;8.50;1.00
7248;DHT22;3665;51.034;13.642;2024-02-15T19:42:46;8.30;99.90
7248;DHT22;3665;51.034;13.642;2024-02-15T19:47:36;8.30;1.00
7248;DHT22;3665;51.034;13.642;2024-02-15T19:52:23;8.40;95.20
7248;DHT22;3665;51.034;13.642;2024-02-15T19:57:10;8.40;1.00
7248;DHT22;3665;51.034;13.642;2024-02-15T20:01:59;8.20;1.00
7248;DHT22;3665;51.034;13.642;2024-02-15T20:07:11;8.20;1.00
7248;DHT22;3665;51.034;13.642;2024-02-15T20:12:07;8.10;1.00
7248;DHT22;3665;51.034;13.642;2024-02-15T20:16:55;8.00;99.90
7248;DHT22;3665;51.034;13.642;2024-02-15T20:21:42;7.90;99.90
7248;DHT22;3665;51.034;13.642;2024-02-15T20:26:31;7.60;99.90
7248;DHT22;3665;51.034;13.642;2024-02-15T20:31:18;7.50;99.90
7248;DHT22;3665;51.034;13.642;2024-02-15T20:36:07;7.40;99.90
7248;DHT22;3665;51.034;13.642;2024-02-15T20:40:55;7.30;99.90
7248;DHT22;3665;51.034;13.642;2024-02-15T20:45:49;7.20;99.90
7248;DHT22;3665;51.034;13.642;2024-02-15T20:50:32;7.20;99.90
7248;DHT22;3665;51.034;13.642;2024-02-15T20:55:21;7.10;99.90
7248;DHT22;3665;51.034;13.642;2024-02-15T21:00:08;7.10;99.90
7248;DHT22;3665;51.034;13.642;2024-02-15T21:04:58;7.00;99.90
7248;DHT22;3665;51.034;13.642;2024-02-15T21:09:45;7.00;99.90
7248;DHT22;3665;51.034;13.642;2024-02-15T21:14:30;6.90;99.90
7248;DHT22;3665;51.034;13.642;2024-02-15T21:19:23;6.80;99.90
7248;DHT22;3665;51.034;13.642;2024-02-15T21:24:21;6.80;99.90
7248;DHT22;3665;51.034;13.642;2024-02-15T21:29:10;6.70;99.90
7248;DHT22;3665;51.034;13.642;2024-02-15T21:33:58;6.70;99.90
7248;DHT22;3665;51.034;13.642;2024-02-15T21:38:47;6.60;99.90
7248;DHT22;3665;51.034;13.642;2024-02-15T21:43:36;6.60;99.90
7248;DHT22;3665;51.034;13.642;2024-02-15T21:48:22;6.80;99.90
7248;DHT22;3665;51.034;13.642;2024-02-15T21:53:12;6.70;99.90
7248;DHT22;3665;51.034;13.642;2024-02-15T21:57:59;6.70;99.90
7248;DHT22;3665;51.034;13.642;2024-02-15T22:02:48;6.80;99.90
7248;DHT22;3665;51.034;13.642;2024-02-15T22:07:37;6.90;99.90
7248;DHT22;3665;51.034;13.642;2024-02-15T22:12:22;7.00;99.90
7248;DHT22;3665;51.034;13.642;2024-02-15T22:17:13;7.20;99.90
7248;DHT22;3665;51.034;13.642;2024-02-15T22:21:59;7.30;99.90
7248;DHT22;3665;51.034;13.642;2024-02-15T22:26:45;7.20;99.90
7248;DHT22;3665;51.034;13.642;2024-02-15T22:31:35;7.00;99.90
7248;DHT22;3665;51.034;13.642;2024-02-15T22:36:26;6.80;99.90
7248;DHT22;3665;51.034;13.642;2024-02-15T22:41:12;6.60;99.90
7248;DHT22;3665;51.034;13.642;2024-02-15T22:46:02;6.50;99.90
7248;DHT22;3665;51.034;13.642;2024-02-15T22:51:41;6.50;99.90
7248;DHT22;3665;51.034;13.642;2024-02-15T22:57:49;6.40;99.90
7248;DHT22;3665;51.034;13.642;2024-02-15T23:03:02;6.30;99.90
7248;DHT22;3665;51.034;13.642;2024-02-15T23:08:28;6.20;99.90
7248;DHT22;3665;51.034;13.642;2024-02-15T23:14:12;6.00;99.90
7248;DHT22;3665;51.034;13.642;2024-02-15T23:19:29;6.00;99.90
7248;DHT22;3665;51.034;13.642;2024-02-15T23:24:45;6.00;99.90
7248;DHT22;3665;51.034;13.642;2024-02-15T23:29:57;6.00;99.90
7248;DHT22;3665;51.034;13.642;2024-02-15T23:35:17;6.00;99.90
7248;DHT22;3665;51.034;13.642;2024-02-15T23:41:23;6.00;99.90
7248;DHT22;3665;51.034;13.642;2024-02-15T23:46:46;6.20;99.90
7248;DHT22;3665;51.034;13.642;2024-02-15T23:58:52;6.50;99.90
